Time;durP1;ratioP1;P1;durP2;ratioP2;P2;SDS_P1;SDS_P2;PMS_P1;PMS_P2;Temp;Humidity;BMP_temperature;BMP_pressure;BME280_temperature;BME280_humidity;BME280_pressure;Samples;Min_cycle;Max_cycle;Signal;HPM_P1;HPM_P2
2023/01/09 00:00:40;;;;;;;1999.90;999.90;;;11.00;99.90;;;;;;5049143;28;20029;-70
2023/01/09 00:03:06;;;;;;;1999.90;999.90;;;11.00;99.90;;;;;;5032078;28;20492;-74
2023/01/09 00:05:32;;;;;;;1999.90;999.90;;;11.10;99.90;;;;;;5063748;28;20107;-71
2023/01/09 00:07:57;;;;;;;1999.90;999.90;;;11.00;99.90;;;;;;5031224;28;20026;-74
2023/01/09 00:10:23;;;;;;;1999.90;999.90;;;11.00;99.90;;;;;;5063889;28;20125;-74
2023/01/09 00:12:48;;;;;;;1999.90;999.90;;;11.00;99.90;;;;;;5031287;28;20096;-74
2023/01/09 00:15:14;;;;;;;1999.90;999.90;;;11.00;99.90;;;;;;5032012;28;20459;-70
2023/01/09 00:17:40;;;;;;;1999.90;999.90;;;11.00;99.90;;;;;;5031996;28;20076;-74
2023/01/09 00:20:08;;;;;;;1999.90;999.90;;;10.80;99.90;;;;;;5031542;28;20112;-74
2023/01/09 00:22:35;;;;;;;1999.90;999.90;;;10.60;99.90;;;;;;5039496;28;20025;-70
2023/01/09 00:25:01;;;;;;;1999.90;999.90;;;10.50;99.90;;;;;;5051411;28;20083;-74
2023/01/09 00:27:33;;;;;;;1999.90;999.90;;;10.40;99.90;;;;;;5051446;28;20029;-74
2023/01/09 00:29:58;;;;;;;1999.90;999.90;;;10.30;99.90;;;;;;5051310;28;20063;-71
2023/01/09 00:32:25;;;;;;;1999.90;999.90;;;10.30;99.90;;;;;;5051368;28;20056;-70
2023/01/09 00:34:50;;;;;;;1999.90;999.90;;;10.40;99.90;;;;;;5051290;28;20031;-70
2023/01/09 00:37:16;;;;;;;1999.90;999.90;;;10.50;99.90;;;;;;5051579;28;20108;-71
2023/01/09 00:39:42;;;;;;;1999.90;999.90;;;10.50;99.90;;;;;;5051684;28;20057;-74
2023/01/09 00:42:12;;;;;;;1999.90;999.90;;;10.50;99.90;;;;;;5050944;28;20029;-74
2023/01/09 00:44:46;;;;;;;1999.90;999.90;;;10.50;99.90;;;;;;5051421;28;20024;-74
2023/01/09 00:47:18;;;;;;;1999.90;999.90;;;10.50;99.90;;;;;;5031430;28;20021;-70
2023/01/09 00:49:45;;;;;;;1999.90;999.90;;;10.60;99.90;;;;;;5031338;28;20022;-74
2023/01/09 00:52:12;;;;;;;1999.90;999.90;;;10.60;99.90;;;;;;5030496;28;20400;-74
2023/01/09 00:54:39;;;;;;;1999.90;999.90;;;10.60;99.90;;;;;;5032372;28;20455;-74
2023/01/09 00:57:05;;;;;;;1999.90;999.90;;;10.60;99.90;;;;;;5034750;28;20025;-71
2023/01/09 00:59:31;;;;;;;1999.90;999.90;;;10.60;99.90;;;;;;5034877;28;20029;-74
2023/01/09 01:01:58;;;;;;;1999.90;999.90;;;10.60;99.90;;;;;;5034726;28;20030;-74
2023/01/09 01:09:51;;;;;;;1999.90;999.90;;;10.70;99.90;;;;;;5034468;28;20499;-74
2023/01/09 01:12:17;;;;;;;1999.90;999.90;;;10.90;99.90;;;;;;5034084;28;20097;-71
2023/01/09 01:14:43;;;;;;;1999.90;999.90;;;10.90;99.90;;;;;;5034694;28;20044;-70
2023/01/09 01:17:08;;;;;;;1999.90;999.90;;;10.90;99.90;;;;;;5049019;28;20431;-71
2023/01/09 01:19:35;;;;;;;1999.90;999.90;;;10.90;99.90;;;;;;5054747;28;20040;-74
2023/01/09 01:22:01;;;;;;;1999.90;999.90;;;10.70;99.90;;;;;;5054140;28;20037;-70
2023/01/09 01:24:26;;;;;;;1999.90;999.90;;;10.40;99.90;;;;;;5053958;28;20123;-74
2023/01/09 01:26:52;;;;;;;1999.90;999.90;;;10.20;99.90;;;;;;5053938;28;20120;-74
2023/01/09 01:29:18;;;;;;;1999.90;999.90;;;10.00;99.90;;;;;;5054588;28;20037;-70
2023/01/09 01:31:43;;;;;;;1999.90;999.90;;;9.90;99.90;;;;;;5054519;28;20033;-70
2023/01/09 01:34:09;;;;;;;1999.90;999.90;;;9.90;99.90;;;;;;5054210;28;20029;-74
2023/01/09 01:36:34;;;;;;;1999.90;999.90;;;9.80;99.90;;;;;;5054060;28;20388;-73
2023/01/09 01:39:00;;;;;;;1999.90;999.90;;;9.20;99.90;;;;;;5054144;28;20106;-71
2023/01/09 01:41:29;;;;;;;1999.90;999.90;;;8.60;99.90;;;;;;5054287;28;20036;-75
2023/01/09 01:43:59;;;;;;;1999.90;999.90;;;8.20;99.90;;;;;;5053877;28;20017;-75
2023/01/09 01:46:27;;;;;;;1999.90;999.90;;;7.90;99.90;;;;;;5054362;28;20399;-71
2023/01/09 01:49:07;;;;;;;1999.90;999.90;;;7.80;99.90;;;;;;5053732;28;20021;-75
2023/01/09 01:51:39;;;;;;;1999.90;999.90;;;7.80;99.90;;;;;;5054071;28;20075;-75
2023/01/09 01:54:13;;;;;;;1999.90;999.90;;;7.90;99.90;;;;;;5053331;28;20070;-75
2023/01/09 01:56:52;;;;;;;1999.90;999.90;;;7.90;99.90;;;;;;5053662;28;20113;-74
2023/01/09 01:59:23;;;;;;;1999.90;999.90;;;7.90;99.90;;;;;;5053888;28;20048;-74
2023/01/09 02:01:52;;;;;;;1999.90;999.90;;;8.00;99.90;;;;;;5041202;28;20044;-74
2023/01/09 02:04:18;;;;;;;1999.90;999.90;;;8.20;99.90;;;;;;5033876;28;20045;-71
2023/01/09 02:06:47;;;;;;;1999.90;999.90;;;8.30;99.90;;;;;;5032268;28;20041;-74
2023/01/09 02:09:14;;;;;;;1999.90;999.90;;;8.50;99.90;;;;;;5033635;28;20033;-73
2023/01/09 02:11:48;;;;;;;1999.90;999.90;;;8.50;99.90;;;;;;5033658;28;20031;-73
2023/01/09 02:14:15;;;;;;;1999.90;999.90;;;8.50;99.90;;;;;;5033216;28;20145;-73
2023/01/09 02:16:55;;;;;;;1999.90;999.90;;;8.70;99.90;;;;;;5033534;28;20036;-74
2023/01/09 02:19:48;;;;;;;1999.90;999.90;;;8.90;99.90;;;;;;5033848;28;20390;-73
2023/01/09 02:22:39;;;;;;;1999.90;999.90;;;8.90;99.90;;;;;;5039751;28;20032;-74
2023/01/09 02:25:42;;;;;;;1999.90;999.90;;;8.90;99.90;;;;;;5052121;28;20400;-74
2023/01/09 02:28:08;;;;;;;;;;;8.90;99.90;;;;;;5053572;28;20467;-74
2023/01/09 02:30:47;;;;;;;1999.90;999.90;;;8.90;99.90;;;;;;5052917;28;19936;-74
2023/01/09 02:33:32;;;;;;;1999.90;999.90;;;8.90;99.90;;;;;;5054341;28;20028;-73
2023/01/09 02:35:58;;;;;;;1999.90;999.90;;;8.80;99.90;;;;;;5053346;28;20033;-73
2023/01/09 02:38:48;;;;;;;1999.90;999.90;;;8.80;99.90;;;;;;5052721;28;20361;-74
2023/01/09 02:41:17;;;;;;;1999.90;999.90;;;8.80;99.90;;;;;;5042698;28;20039;-73
2023/01/09 02:43:43;;;;;;;1999.90;999.90;;;8.70;99.90;;;;;;5052759;28;20050;-73
2023/01/09 02:46:20;;;;;;;1999.90;999.90;;;8.70;99.90;;;;;;5052769;28;20041;-73
2023/01/09 02:48:49;;;;;;;1999.90;999.90;;;8.70;99.90;;;;;;5052692;28;20031;-71
2023/01/09 02:51:27;;;;;;;1999.90;999.90;;;8.80;99.90;;;;;;5052807;28;20108;-71
2023/01/09 02:54:05;;;;;;;1999.90;999.90;;;8.80;99.90;;;;;;5051960;28;20496;-74
2023/01/09 02:56:43;;;;;;;1999.90;999.90;;;8.80;99.90;;;;;;5052362;28;20544;-73
2023/01/09 02:59:16;;;;;;;1999.90;999.90;;;8.90;99.90;;;;;;5052562;28;20523;-73
2023/01/09 03:01:50;;;;;;;1999.90;999.90;;;9.00;99.90;;;;;;5041487;28;20029;-74
2023/01/09 03:04:52;;;;;;;1999.90;999.90;;;9.20;99.90;;;;;;5032849;28;20129;-73
2023/01/09 03:07:36;;;;;;;1999.90;999.90;;;9.30;99.90;;;;;;5031746;28;20060;-73
2023/01/09 03:10:19;;;;;;;1999.90;999.90;;;9.20;99.90;;;;;;5032428;28;20029;-73
2023/01/09 03:12:47;;;;;;;;;;;9.20;99.90;;;;;;5032098;28;20025;-73
2023/01/09 03:15:14;;;;;;;1999.90;999.90;;;9.20;99.90;;;;;;5032656;28;19955;-73
2023/01/09 03:17:45;;;;;;;1999.90;999.90;;;9.20;99.90;;;;;;5032359;28;20014;-74
2023/01/09 03:20:14;;;;;;;1999.90;999.90;;;9.20;99.90;;;;;;5032532;28;20076;-73
2023/01/09 03:22:51;;;;;;;1999.90;999.90;;;9.10;99.90;;;;;;5042330;28;20040;-70
2023/01/09 03:25:17;;;;;;;1999.90;999.90;;;8.90;99.90;;;;;;5051957;28;20510;-73
2023/01/09 03:27:42;;;;;;;1999.90;999.90;;;8.80;99.90;;;;;;5051990;28;20021;-73
2023/01/09 03:30:09;;;;;;;1999.90;999.90;;;8.80;99.90;;;;;;5051828;28;20090;-74
2023/01/09 03:32:34;;;;;;;1999.90;999.90;;;8.70;99.90;;;;;;5051909;28;20400;-74
2023/01/09 03:35:01;;;;;;;1999.90;999.90;;;8.60;99.90;;;;;;5052117;28;20029;-71
2023/01/09 03:37:26;;;;;;;1999.90;999.90;;;8.50;99.90;;;;;;5052182;28;20543;-70
2023/01/09 03:39:52;;;;;;;1999.90;999.90;;;8.50;99.90;;;;;;5052071;28;20104;-71
2023/01/09 03:42:18;;;;;;;1999.90;999.90;;;8.40;99.90;;;;;;5051562;28;20032;-73
2023/01/09 03:44:43;;;;;;;1999.90;999.90;;;8.40;99.90;;;;;;5051850;28;20028;-70
2023/01/09 03:47:09;;;;;;;1999.90;999.90;;;8.40;99.90;;;;;;5052506;28;20063;-73
2023/01/09 03:49:34;;;;;;;1999.90;999.90;;;8.50;99.90;;;;;;5052324;28;20543;-73
2023/01/09 03:52:00;;;;;;;1999.90;999.90;;;8.60;99.90;;;;;;5051721;28;20493;-73
2023/01/09 03:54:26;;;;;;;1999.90;999.90;;;8.80;99.90;;;;;;5051189;28;20106;-73
2023/01/09 03:56:51;;;;;;;1999.90;999.90;;;9.10;99.90;;;;;;5051803;28;20059;-74
2023/01/09 03:59:17;;;;;;;1999.90;999.90;;;9.20;99.90;;;;;;5051889;28;20033;-74
2023/01/09 04:01:43;;;;;;;1999.90;999.90;;;9.50;99.90;;;;;;5040871;28;20036;-72
2023/01/09 04:04:08;;;;;;;1999.90;999.90;;;9.80;99.90;;;;;;5032022;28;20504;-73
2023/01/09 04:06:34;;;;;;;1999.90;999.90;;;9.70;99.90;;;;;;5031911;28;20500;-72
2023/01/09 04:08:59;;;;;;;1999.90;999.90;;;9.30;99.90;;;;;;5031722;28;20029;-73
2023/01/09 04:11:25;;;;;;;1999.90;999.90;;;9.00;99.90;;;;;;5031844;28;20022;-71
2023/01/09 04:13:51;;;;;;;1999.90;999.90;;;8.90;99.90;;;;;;5031443;28;20029;-73
2023/01/09 04:16:16;;;;;;;1999.90;999.90;;;8.80;99.90;;;;;;5031281;28;20025;-73
2023/01/09 04:18:42;;;;;;;1999.90;999.90;;;8.80;99.90;;;;;;5031691;28;20460;-73
2023/01/09 04:21:07;;;;;;;1999.90;999.90;;;8.80;99.90;;;;;;5031519;28;20029;-73
2023/01/09 04:23:33;;;;;;;1999.90;999.90;;;9.00;99.90;;;;;;5048780;28;20025;-73
2023/01/09 04:25:59;;;;;;;1999.90;999.90;;;9.00;99.90;;;;;;5051163;28;20025;-73
2023/01/09 04:28:24;;;;;;;1999.90;999.90;;;9.00;99.90;;;;;;5051274;28;20033;-73
2023/01/09 04:30:50;;;;;;;1999.90;999.90;;;9.10;99.90;;;;;;5054394;28;20092;-73
2023/01/09 04:33:15;;;;;;;1999.90;999.90;;;9.10;99.90;;;;;;5055699;28;20314;-73
2023/01/09 04:35:41;;;;;;;1999.90;999.90;;;9.20;99.90;;;;;;5055461;28;20392;-72
2023/01/09 04:38:07;;;;;;;1999.90;999.90;;;9.10;99.90;;;;;;5055265;28;20028;-73
2023/01/09 04:40:32;;;;;;;1999.90;999.90;;;9.00;99.90;;;;;;5055350;28;20036;-73
2023/01/09 04:42:58;;;;;;;1999.90;999.90;;;9.00;99.90;;;;;;5054790;28;20033;-73
2023/01/09 04:45:23;;;;;;;1999.90;999.90;;;9.00;99.90;;;;;;5055558;28;20480;-70
2023/01/09 04:47:49;;;;;;;1999.90;999.90;;;9.00;99.90;;;;;;5055319;28;20029;-73
2023/01/09 04:50:15;;;;;;;1999.90;999.90;;;8.90;99.90;;;;;;5054715;28;20025;-72
2023/01/09 04:52:40;;;;;;;1999.90;999.90;;;8.90;99.90;;;;;;5054932;28;20124;-70
2023/01/09 04:55:07;;;;;;;1999.90;999.90;;;9.00;99.90;;;;;;5054170;28;20079;-72
2023/01/09 04:57:34;;;;;;;1999.90;999.90;;;8.90;99.90;;;;;;5054959;28;20029;-74
2023/01/09 04:59:59;;;;;;;1999.90;999.90;;;8.90;99.90;;;;;;5055113;28;20048;-70
2023/01/09 05:02:25;;;;;;;1999.90;999.90;;;9.00;99.90;;;;;;5037450;28;20080;-73
2023/01/09 05:04:50;;;;;;;1999.90;999.90;;;9.10;99.90;;;;;;5034608;28;20054;-70
2023/01/09 05:07:16;;;;;;;1999.90;999.90;;;9.20;99.90;;;;;;5034733;28;20108;-72
2023/01/09 05:09:42;;;;;;;1999.90;999.90;;;9.30;99.90;;;;;;5034907;28;20029;-73
2023/01/09 05:12:08;;;;;;;1999.90;999.90;;;9.30;99.90;;;;;;5034452;28;20087;-70
2023/01/09 05:14:34;;;;;;;1999.90;999.90;;;9.30;99.90;;;;;;5034578;28;20029;-73
2023/01/09 05:17:00;;;;;;;1999.90;999.90;;;9.40;99.90;;;;;;5034556;28;20087;-73
2023/01/09 05:19:25;;;;;;;1999.90;999.90;;;9.40;99.90;;;;;;5034730;28;20022;-73
2023/01/09 05:21:51;;;;;;;1999.90;999.90;;;8.90;99.90;;;;;;5037585;28;20377;-73
2023/01/09 05:24:16;;;;;;;1999.90;999.90;;;8.50;99.90;;;;;;5054224;28;20021;-70
2023/01/09 05:26:42;;;;;;;1999.90;999.90;;;8.30;99.90;;;;;;5053886;28;20103;-70
2023/01/09 05:29:09;;;;;;;1999.90;999.90;;;8.20;99.90;;;;;;5054078;28;20074;-70
2023/01/09 05:31:34;;;;;;;1999.90;999.90;;;8.10;99.90;;;;;;5054516;28;20033;-72
2023/01/09 05:34:00;;;;;;;1999.90;999.90;;;8.10;99.90;;;;;;5054503;28;20092;-73
2023/01/09 05:36:27;;;;;;;1999.90;999.90;;;8.10;99.90;;;;;;5054169;28;20430;-69
2023/01/09 05:38:52;;;;;;;1999.90;999.90;;;8.20;99.90;;;;;;5054414;28;20075;-72
2023/01/09 05:41:18;;;;;;;1999.90;999.90;;;7.70;99.90;;;;;;5054313;28;20040;-72
2023/01/09 05:43:43;;;;;;;1999.90;999.90;;;7.00;99.90;;;;;;5053956;28;20025;-69
2023/01/09 05:46:09;;;;;;;1999.90;999.90;;;6.80;99.90;;;;;;5052922;28;20044;-72
2023/01/09 05:48:35;;;;;;;1999.90;999.90;;;6.80;99.90;;;;;;5053967;28;20033;-73
2023/01/09 05:51:00;;;;;;;1999.90;999.90;;;6.90;99.90;;;;;;5054025;28;20107;-73
2023/01/09 05:53:26;;;;;;;1999.90;999.90;;;6.90;99.90;;;;;;5052468;28;20060;-73
2023/01/09 05:55:51;;;;;;;1999.90;999.90;;;7.10;99.90;;;;;;5053153;28;20090;-71
2023/01/09 05:58:17;;;;;;;1999.90;999.90;;;7.30;99.90;;;;;;5053313;28;20016;-72
2023/01/09 06:00:43;;;;;;;1999.90;999.90;;;7.30;99.90;;;;;;5050108;28;20036;-72
2023/01/09 06:03:08;;;;;;;1999.90;999.90;;;7.20;99.90;;;;;;5034033;28;20464;-71
2023/01/09 06:05:34;;;;;;;1999.90;999.90;;;7.20;99.90;;;;;;5033823;28;20053;-73
2023/01/09 06:07:59;;;;;;;1999.90;999.90;;;7.20;99.90;;;;;;5033512;28;20032;-74
2023/01/09 06:10:25;;;;;;;1999.90;999.90;;;7.30;99.90;;;;;;5033400;28;20030;-72
2023/01/09 06:12:51;;;;;;;1999.90;999.90;;;7.40;99.90;;;;;;5032872;28;20025;-72
2023/01/09 06:15:19;;;;;;;1999.90;999.90;;;7.40;99.90;;;;;;5033476;28;20029;-72
2023/01/09 06:17:45;;;;;;;1999.90;999.90;;;7.60;99.90;;;;;;5033921;28;20022;-72
2023/01/09 06:20:11;;;;;;;1999.90;999.90;;;7.80;99.90;;;;;;5033285;28;20048;-72
2023/01/09 06:22:37;;;;;;;1999.90;999.90;;;8.00;99.90;;;;;;5042340;28;20028;-72
2023/01/09 06:25:03;;;;;;;1999.90;999.90;;;8.20;99.90;;;;;;5052991;28;20040;-72
2023/01/09 06:27:28;;;;;;;1999.90;999.90;;;8.30;99.90;;;;;;5052884;28;20033;-72
2023/01/09 06:29:54;;;;;;;1999.90;999.90;;;8.40;99.90;;;;;;5052987;28;20063;-72
2023/01/09 06:32:20;;;;;;;1999.90;999.90;;;8.50;99.90;;;;;;5044647;28;20087;-72
2023/01/09 06:34:45;;;;;;;1999.90;999.90;;;8.50;99.90;;;;;;5052086;28;20063;-70
2023/01/09 06:37:11;;;;;;;1999.90;999.90;;;8.70;99.90;;;;;;5038690;28;20028;-70
2023/01/09 06:39:36;;;;;;;1999.90;999.90;;;8.70;99.90;;;;;;5050656;28;20037;-70
2023/01/09 06:42:03;;;;;;;1999.90;999.90;;;8.60;99.90;;;;;;5048717;28;20567;-72
2023/01/09 06:44:28;;;;;;;1999.90;999.90;;;8.30;99.90;;;;;;5051465;28;20037;-69
2023/01/09 06:46:54;;;;;;;1999.90;999.90;;;8.00;99.90;;;;;;5052536;28;20516;-73
2023/01/09 06:49:23;;;;;;;1999.90;999.90;;;7.80;99.90;;;;;;5051286;28;20491;-70
2023/01/09 06:51:50;;;;;;;1999.90;999.90;;;7.60;99.90;;;;;;5053701;28;20060;-72
2023/01/09 06:54:17;;;;;;;1999.90;999.90;;;7.60;99.90;;;;;;5071957;28;20033;-70
2023/01/09 06:56:43;;;;;;;1999.90;999.90;;;7.60;99.90;;;;;;5054292;28;20029;-70
2023/01/09 06:59:08;;;;;;;1999.90;999.90;;;7.60;99.90;;;;;;5072146;28;20123;-70
2023/01/09 07:01:34;;;;;;;1999.90;999.90;;;7.70;99.90;;;;;;5052851;28;20032;-70
2023/01/09 07:03:59;;;;;;;1999.90;999.90;;;7.70;99.90;;;;;;5052405;28;20045;-72
2023/01/09 07:06:25;;;;;;;1999.90;999.90;;;7.80;99.90;;;;;;5051844;28;20029;-72
2023/01/09 07:08:51;;;;;;;1999.90;999.90;;;7.80;99.90;;;;;;5053203;28;20128;-70
2023/01/09 07:11:16;;;;;;;1999.90;999.90;;;7.90;99.90;;;;;;5044590;28;20123;-70
2023/01/09 07:13:42;;;;;;;1999.90;999.90;;;8.00;99.90;;;;;;5044493;28;20029;-73
2023/01/09 07:16:08;;;;;;;1999.90;999.90;;;8.10;99.90;;;;;;5045281;28;20037;-72
2023/01/09 07:18:34;;;;;;;1999.90;999.90;;;8.10;99.90;;;;;;5049245;28;20079;-73
2023/01/09 07:21:00;;;;;;;1999.90;999.90;;;8.20;99.90;;;;;;5048763;28;20087;-72
2023/01/09 07:23:25;;;;;;;1999.90;999.90;;;8.30;99.90;;;;;;5046233;28;20028;-72
2023/01/09 07:25:51;;;;;;;1999.90;999.90;;;8.40;99.90;;;;;;5049881;28;20025;-70
2023/01/09 07:28:17;;;;;;;1999.90;999.90;;;8.40;99.90;;;;;;5047064;28;20056;-70
2023/01/09 07:30:42;;;;;;;1999.90;999.90;;;8.60;99.90;;;;;;5048157;28;20403;-73
2023/01/09 07:33:08;;;;;;;1999.90;999.90;;;8.80;99.90;;;;;;5049369;28;20112;-71
2023/01/09 07:35:34;;;;;;;1999.90;999.90;;;9.00;99.90;;;;;;5043705;28;20057;-71
2023/01/09 07:38:00;;;;;;;1999.90;999.90;;;9.00;99.90;;;;;;5049052;28;20029;-73
2023/01/09 07:40:26;;;;;;;1999.90;999.90;;;8.90;99.90;;;;;;5049198;28;20025;-71
2023/01/09 07:42:52;;;;;;;1999.90;999.90;;;8.80;99.90;;;;;;5048182;28;20048;-73
2023/01/09 07:45:18;;;;;;;1999.90;999.90;;;8.90;99.90;;;;;;5047824;28;20060;-73
2023/01/09 07:47:44;;;;;;;1999.90;999.90;;;8.50;99.90;;;;;;5041142;28;20067;-73
2023/01/09 07:50:10;;;;;;;1999.90;999.90;;;7.90;99.90;;;;;;5034039;28;20078;-69
2023/01/09 07:52:35;;;;;;;1999.90;999.90;;;7.50;99.90;;;;;;5044091;28;20091;-72
2023/01/09 07:55:01;;;;;;;1999.90;999.90;;;7.40;99.90;;;;;;5044702;28;20025;-75
2023/01/09 07:57:28;;;;;;;1999.90;999.90;;;7.30;99.90;;;;;;5047863;28;20033;-72
2023/01/09 07:59:54;;;;;;;1999.90;999.90;;;7.20;99.90;;;;;;5038631;28;20527;-71
2023/01/09 08:02:19;;;;;;;1999.90;999.90;;;7.10;99.90;;;;;;5044764;28;20028;-70
2023/01/09 08:04:45;;;;;;;1999.90;999.90;;;6.90;99.90;;;;;;5049890;28;20123;-69
2023/01/09 08:07:11;;;;;;;1999.90;999.90;;;6.90;99.90;;;;;;5049010;28;20095;-70
2023/01/09 08:09:38;;;;;;;1999.90;999.90;;;6.90;99.90;;;;;;5047883;28;20033;-73
2023/01/09 08:12:03;;;;;;;1999.90;999.90;;;6.90;99.90;;;;;;5044588;28;20036;-71
2023/01/09 08:14:29;;;;;;;1999.90;999.90;;;7.00;99.90;;;;;;5047725;28;20021;-73
2023/01/09 08:16:55;;;;;;;1999.90;999.90;;;7.10;99.90;;;;;;5050000;28;20511;-72
2023/01/09 08:19:20;;;;;;;1999.90;999.90;;;7.10;99.90;;;;;;5039046;28;20025;-73
2023/01/09 08:21:46;;;;;;;1999.90;999.90;;;7.10;99.90;;;;;;5042324;28;20150;-73
2023/01/09 08:24:12;;;;;;;1999.90;999.90;;;7.10;99.90;;;;;;5042695;28;20518;-73
2023/01/09 08:26:37;;;;;;;1999.90;999.90;;;7.10;99.90;;;;;;5051464;28;20044;-71
2023/01/09 08:29:03;;;;;;;1999.90;999.90;;;7.00;99.90;;;;;;5047918;28;20033;-71
2023/01/09 08:31:29;;;;;;;1999.90;999.90;;;7.10;99.90;;;;;;5051627;28;20028;-71
2023/01/09 08:33:54;;;;;;;1999.90;999.90;;;7.00;99.90;;;;;;5047652;28;20032;-71
2023/01/09 08:36:20;;;;;;;1999.90;999.90;;;7.10;99.90;;;;;;5046249;28;20063;-74
2023/01/09 08:38:45;;;;;;;1999.90;999.90;;;7.30;99.90;;;;;;5050673;28;20036;-71
2023/01/09 08:47:05;;;;;;;1999.90;999.90;;;7.90;99.90;;;;;;5060635;28;20043;-72
2023/01/09 08:49:32;;;;;;;1999.90;999.90;;;8.20;99.90;;;;;;5044247;28;20037;-74
2023/01/09 08:51:58;;;;;;;1999.90;999.90;;;8.90;99.90;;;;;;5042283;28;20021;-72
2023/01/09 08:54:24;;;;;;;1999.90;999.90;;;9.30;99.90;;;;;;5049913;28;20029;-71
2023/01/09 08:56:49;;;;;;;1999.90;999.90;;;9.80;99.90;;;;;;5054726;28;20025;-73
2023/01/09 08:59:15;;;;;;;1999.90;999.90;;;9.10;99.90;;;;;;5048431;28;20500;-75
2023/01/09 09:01:41;;;;;;;1999.90;999.90;;;8.30;99.90;;;;;;5049915;28;20044;-76
2023/01/09 09:04:06;;;;;;;1999.90;999.90;;;7.80;99.90;;;;;;5050601;28;20052;-75
2023/01/09 09:06:33;;;;;;;1999.90;999.90;;;7.60;99.90;;;;;;5043386;28;20048;-71
2023/01/09 09:09:02;;;;;;;1999.90;999.90;;;7.50;99.90;;;;;;5042529;28;20029;-70
2023/01/09 09:11:31;;;;;;;1999.90;999.90;;;7.40;99.90;;;;;;5042983;28;20036;-75
2023/01/09 09:13:57;;;;;;;1999.90;999.90;;;7.40;99.90;;;;;;5047588;28;20399;-75
2023/01/09 09:16:24;;;;;;;1999.90;999.90;;;7.40;99.90;;;;;;5056891;28;20033;-73
2023/01/09 09:18:50;;;;;;;1999.90;999.90;;;7.40;99.90;;;;;;5039431;28;20534;-74
2023/01/09 09:21:15;;;;;;;1999.90;999.90;;;7.60;99.90;;;;;;5049133;28;20033;-70
2023/01/09 09:23:43;;;;;;;1999.90;999.90;;;7.80;99.90;;;;;;5048398;28;20142;-70
2023/01/09 09:26:09;;;;;;;1999.90;999.90;;;8.10;99.90;;;;;;5046042;28;20037;-73
2023/01/09 09:28:34;;;;;;;1999.90;999.90;;;8.40;99.90;;;;;;5041731;28;20515;-70
2023/01/09 09:31:00;;;;;;;1999.90;999.90;;;8.80;99.90;;;;;;5045504;28;20540;-74
2023/01/09 09:33:25;;;;;;;1999.90;999.90;;;9.00;99.90;;;;;;5042581;28;20096;-70
2023/01/09 09:35:51;;;;;;;1999.90;999.90;;;9.20;99.90;;;;;;5051774;28;20068;-70
2023/01/09 09:38:17;;;;;;;1999.90;999.90;;;9.30;99.90;;;;;;5049723;28;20040;-74
2023/01/09 09:44:42;;;;;;;1999.90;999.90;;;9.50;99.90;;;;;;5070491;28;20086;-74
2023/01/09 09:44:42;;;;;;;1999.90;999.90;;;9.80;99.90;;;;;;5043836;28;20438;-73
2023/01/09 09:47:30;;;;;;;1999.90;999.90;;;10.20;99.90;;;;;;5052367;28;20170;-70
2023/01/09 09:50:15;;;;;;;1999.90;999.90;;;10.10;99.90;;;;;;5046039;28;20021;-70
2023/01/09 09:52:56;;;;;;;1999.90;999.90;;;9.90;99.90;;;;;;5048553;28;20032;-73
2023/01/09 09:55:31;;;;;;;1999.90;999.90;;;9.60;99.90;;;;;;5049564;28;20025;-70
2023/01/09 09:57:59;;;;;;;1999.90;999.90;;;9.40;99.90;;;;;;5052995;28;20503;-74
2023/01/09 10:00:26;;;;;;;1999.90;999.90;;;9.10;99.90;;;;;;5049401;28;20071;-70
2023/01/09 10:02:59;;;;;;;1999.90;999.90;;;8.90;99.90;;;;;;5048400;28;20033;-73
2023/01/09 10:05:34;;;;;;;1999.90;999.90;;;8.70;99.90;;;;;;5048429;28;20334;-76
2023/01/09 10:08:06;;;;;;;1999.90;999.90;;;8.40;99.90;;;;;;5066695;28;20309;-73
2023/01/09 10:10:45;;;;;;;1999.90;999.90;;;8.20;99.90;;;;;;5048040;28;20037;-70
2023/01/09 10:16:21;;;;;;;1999.90;999.90;;;7.90;99.90;;;;;;5051018;28;20633;-71
2023/01/09 10:19:04;;;;;;;1999.90;999.90;;;7.90;99.90;;;;;;5038064;28;20048;-73
2023/01/09 10:21:36;;;;;;;;;;;8.00;99.90;;;;;;5049468;28;20407;-73
2023/01/09 10:24:33;;;;;;;1999.90;999.90;;;8.20;99.90;;;;;;5053044;28;19909;-70
2023/01/09 10:27:16;;;;;;;1999.90;999.90;;;8.40;99.90;;;;;;5040255;28;20033;-70
2023/01/09 10:30:06;;;;;;;1999.90;999.90;;;8.70;99.90;;;;;;5046829;28;20067;-70
2023/01/09 10:32:53;;;;;;;1999.90;999.90;;;8.90;99.90;;;;;;5047672;28;20555;-70
2023/01/09 10:35:33;;;;;;;1999.90;999.90;;;9.30;99.90;;;;;;5048113;28;20025;-70
2023/01/09 10:38:03;;;;;;;1999.90;999.90;;;9.60;99.90;;;;;;5049434;28;20041;-73
2023/01/09 10:40:49;;;;;;;1999.90;999.90;;;9.70;99.90;;;;;;5051023;28;20032;-71
2023/01/09 10:43:27;;;;;;;1999.90;999.90;;;9.70;99.90;;;;;;5048654;28;20511;-73
2023/01/09 10:45:59;;;;;;;1999.90;999.90;;;9.80;99.90;;;;;;5049117;28;20029;-73
2023/01/09 10:48:37;;;;;;;1999.90;999.90;;;10.00;99.90;;;;;;5047075;28;20029;-72
2023/01/09 10:51:18;;;;;;;1999.90;999.90;;;10.10;99.90;;;;;;5049093;28;20459;-75
2023/01/09 10:53:53;;;;;;;1999.90;999.90;;;10.20;99.90;;;;;;5046112;28;20095;-73
2023/01/09 10:56:33;;;;;;;1999.90;999.90;;;10.40;99.90;;;;;;5047458;28;20055;-70
2023/01/09 10:58:59;;;;;;;1999.90;999.90;;;10.60;99.90;;;;;;5050087;28;20044;-75
2023/01/09 11:01:27;;;;;;;1999.90;999.90;;;10.70;99.90;;;;;;5047911;28;20033;-69
2023/01/09 11:03:53;;;;;;;1999.90;999.90;;;11.00;99.90;;;;;;5047283;28;20494;-72
2023/01/09 11:06:26;;;;;;;1999.90;999.90;;;11.20;99.90;;;;;;5050055;28;20037;-71
2023/01/09 11:09:00;;;;;;;1999.90;999.90;;;11.50;99.90;;;;;;5049230;28;20344;-70
2023/01/09 11:11:36;;;;;;;1999.90;999.90;;;11.80;99.90;;;;;;5046912;28;20025;-74
2023/01/09 11:14:30;;;;;;;1999.90;999.90;;;11.30;99.90;;;;;;5045199;28;20036;-74
2023/01/09 11:16:58;;;;;;;1999.90;999.90;;;9.90;99.90;;;;;;5045924;28;20554;-70
2023/01/09 11:19:24;;;;;;;1999.90;999.90;;;8.80;99.90;;;;;;5047302;28;20510;-74
2023/01/09 11:22:13;;;;;;;1999.90;999.90;;;8.50;99.90;;;;;;5046307;28;20033;-72
2023/01/09 11:24:39;;;;;;;1999.90;999.90;;;8.40;99.90;;;;;;5046693;28;20037;-74
2023/01/09 11:27:22;;;;;;;1999.90;999.90;;;8.80;99.90;;;;;;5047611;28;20142;-71
2023/01/09 11:30:05;;;;;;;1999.90;999.90;;;9.30;99.90;;;;;;5038027;28;20488;-71
2023/01/09 11:32:31;;;;;;;1999.90;999.90;;;9.90;99.90;;;;;;5040681;28;20064;-72
2023/01/09 11:34:57;;;;;;;1999.90;999.90;;;10.30;99.90;;;;;;5045900;28;20029;-72
2023/01/09 11:37:27;;;;;;;1999.90;999.90;;;10.60;99.90;;;;;;5046464;28;20082;-74
2023/01/09 11:39:54;;;;;;;1999.90;999.90;;;10.50;99.90;;;;;;5046111;28;20035;-74
2023/01/09 11:45:19;;;;;;;1999.90;999.90;;;10.40;99.90;;;;;;5038001;28;20086;-73
2023/01/09 11:47:45;;;;;;;1999.90;999.90;;;10.50;99.90;;;;;;5048559;28;20108;-72
2023/01/09 11:50:51;;;;;;;1999.90;999.90;;;10.60;99.90;;;;;;5046845;28;20064;-74
2023/01/09 11:53:18;;;;;;;1999.90;999.90;;;10.50;99.90;;;;;;5046478;28;20071;-74
2023/01/09 11:55:46;;;;;;;1999.90;999.90;;;10.50;99.90;;;;;;5045589;28;20029;-72
2023/01/09 11:58:17;;;;;;;1999.90;999.90;;;10.50;99.90;;;;;;5039979;28;20041;-75
2023/01/09 12:00:59;;;;;;;1999.90;999.90;;;10.80;99.90;;;;;;5044244;28;20518;-73
2023/01/09 12:03:39;;;;;;;1999.90;999.90;;;11.20;99.90;;;;;;5043796;28;20037;-74
2023/01/09 12:06:18;;;;;;;1999.90;999.90;;;11.30;99.90;;;;;;5046359;28;20044;-72
2023/01/09 12:08:52;;;;;;;1999.90;999.90;;;11.80;99.90;;;;;;5045382;28;20033;-75
2023/01/09 12:11:26;;;;;;;1999.90;999.90;;;11.60;99.90;;;;;;5045090;28;20029;-72
2023/01/09 12:13:58;;;;;;;1999.90;999.90;;;11.10;99.90;;;;;;5046385;28;20033;-75
2023/01/09 12:16:40;;;;;;;1999.90;999.90;;;11.30;99.90;;;;;;5041852;28;20187;-71
2023/01/09 12:19:18;;;;;;;1999.90;999.90;;;11.20;99.90;;;;;;5043425;28;20021;-73
2023/01/09 12:21:57;;;;;;;1999.90;999.90;;;11.40;99.90;;;;;;5044741;28;20108;-75
2023/01/09 12:24:44;;;;;;;1999.90;999.90;;;11.60;99.90;;;;;;5045779;28;20037;-72
2023/01/09 12:27:47;;;;;;;1999.90;999.90;;;12.40;99.90;;;;;;5043980;28;20492;-72
2023/01/09 12:30:32;;;;;;;1999.90;999.90;;;12.00;99.90;;;;;;5040533;28;20036;-71
2023/01/09 12:33:15;;;;;;;1999.90;999.90;;;11.40;99.90;;;;;;5042061;28;20120;-73
2023/01/09 12:35:47;;;;;;;;;;;10.80;99.90;;;;;;5044141;28;20032;-71
2023/01/09 12:38:39;;;;;;;1999.90;999.90;;;10.50;99.90;;;;;;5038758;28;19913;-72